5M9

Marion-Crittenden County Airport

Marion, Kentucky, USA
METAR K5M9 151835Z AUTO 35006KT 10SM SCT080 OVC085 00/M06 A2997 RMK AO2 T00001063
Observed Flight Rules
Feb-15 @ 18:35 UTC (33 minutes ago) Visual Flight Rules
Wind Visibility Clouds
350° at 6 knots 10 miles
  • Scattered at 8,000' AGL
  • Overcast at 8,500' AGL
Temperatures Readings
Current 0°C / 32°F
Dewpoint -6°C / 21°F
Humidity 64%
Altimeter 29.97" Hg
Pressure 1014.92 hPa
Elevation 199
METAR K5M9 151835Z AUTO 35006KT 10SM SCT080 OVC085 00/M06 A2997 RMK AO2 T00001063
Observed Flight Rules
Feb-15 @ 18:35 UTC
(33 minutes ago)
VFR
Wind Visibility
350° at 6 knots 10 miles
Clouds
  • Scattered at 8,000' AGL
  • Overcast at 8,500' AGL
Temperature Dewpoint
0°C / 32°F -6°C / 21°F
Humidity Altimeter Pressure
64% 29.97" Hg 1014.92 hPa